Time;durP1;ratioP1;P1;durP2;ratioP2;P2;SDS_P1;SDS_P2;PMS_P1;PMS_P2;Temp;Humidity;BMP_temperature;BMP_pressure;BME280_temperature;BME280_humidity;BME280_pressure;Samples;Min_cycle;Max_cycle;Signal;HPM_P1;HPM_P2
2023/05/27 00:01:00;;;;;;;0.30;0.30;;;5.50;99.90;;;;;;5013824;28;20432;-75
2023/05/27 00:03:25;;;;;;;0.20;0.20;;;5.50;99.90;;;;;;5013705;28;20428;-75
2023/05/27 00:05:51;;;;;;;0.20;0.20;;;5.50;99.90;;;;;;5013760;28;20022;-75
2023/05/27 00:08:17;;;;;;;0.20;0.20;;;5.40;99.90;;;;;;5028877;28;20033;-75
2023/05/27 00:10:42;;;;;;;0.20;0.20;;;5.40;99.90;;;;;;5013749;28;20085;-75
2023/05/27 00:13:08;;;;;;;0.30;0.30;;;5.40;99.90;;;;;;5013911;28;20478;-75
2023/05/27 00:15:33;;;;;;;0.20;0.20;;;5.40;99.90;;;;;;5028474;28;20025;-75
2023/05/27 00:18:02;;;;;;;0.10;0.10;;;5.40;99.90;;;;;;5014016;28;20064;-75
2023/05/27 00:20:29;;;;;;;0.20;0.20;;;5.40;99.90;;;;;;5013676;28;20060;-75
2023/05/27 00:22:56;;;;;;;0.30;0.30;;;5.40;99.90;;;;;;5028859;28;20445;-75
2023/05/27 00:25:22;;;;;;;0.10;0.10;;;5.40;99.90;;;;;;5013470;28;20025;-75
2023/05/27 00:27:48;;;;;;;0.20;0.20;;;5.50;99.90;;;;;;5028610;28;20068;-75
2023/05/27 00:30:15;;;;;;;0.20;0.20;;;5.50;99.90;;;;;;5013362;28;20026;-75
2023/05/27 00:32:41;;;;;;;0.20;0.20;;;5.50;99.90;;;;;;5028414;28;20026;-75
2023/05/27 00:35:07;;;;;;;0.20;0.20;;;5.40;99.90;;;;;;5013886;28;20029;-75
2023/05/27 00:37:33;;;;;;;0.20;0.20;;;5.40;99.90;;;;;;5013367;28;20422;-75
2023/05/27 00:39:58;;;;;;;0.20;0.20;;;5.50;99.90;;;;;;5028531;28;20121;-75
2023/05/27 00:42:24;;;;;;;0.20;0.20;;;5.60;99.90;;;;;;5013254;28;20025;-75
2023/05/27 00:44:49;;;;;;;0.20;0.20;;;5.70;99.90;;;;;;5028480;28;20053;-75
2023/05/27 00:47:16;;;;;;;0.20;0.20;;;5.80;99.90;;;;;;5028331;28;20064;-75
2023/05/27 00:49:44;;;;;;;0.20;0.20;;;5.80;99.90;;;;;;5013855;28;20022;-75
2023/05/27 00:52:09;;;;;;;0.20;0.20;;;5.80;99.90;;;;;;5028291;28;20553;-75
2023/05/27 00:54:35;;;;;;;0.20;0.20;;;5.80;99.90;;;;;;5013155;28;20030;-75
2023/05/27 00:57:03;;;;;;;0.20;0.20;;;5.70;99.90;;;;;;5013123;28;20026;-75
2023/05/27 00:59:29;;;;;;;0.20;0.20;;;5.60;99.90;;;;;;5013446;28;20518;-75
2023/05/27 01:01:55;;;;;;;0.20;0.20;;;5.50;99.90;;;;;;5013252;28;20116;-75
2023/05/27 01:04:21;;;;;;;0.20;0.20;;;5.50;99.90;;;;;;5013073;28;20026;-75
2023/05/27 01:07:15;;;;;;;0.30;0.30;;;5.50;99.90;;;;;;5012964;28;20022;-75
2023/05/27 01:09:49;;;;;;;0.22;0.22;;;5.50;99.90;;;;;;5013714;28;20026;-75
2023/05/27 01:12:46;;;;;;;0.10;0.10;;;5.50;99.90;;;;;;5012905;28;20026;-75
2023/05/27 01:15:12;;;;;;;0.20;0.20;;;5.50;99.90;;;;;;4985911;28;20030;-75
2023/05/27 01:17:42;;;;;;;0.10;0.10;;;5.40;99.90;;;;;;5012931;28;20395;-75
2023/05/27 01:20:13;;;;;;;0.20;0.20;;;5.30;99.90;;;;;;5013066;28;20057;-75
2023/05/27 01:22:41;;;;;;;0.20;0.20;;;5.30;99.90;;;;;;5012997;28;20483;-75
2023/05/27 01:25:08;;;;;;;0.25;0.25;;;5.20;99.90;;;;;;5013224;28;20041;-75
2023/05/27 01:27:34;;;;;;;0.20;0.20;;;5.20;99.90;;;;;;5028556;28;20038;-75
2023/05/27 01:30:00;;;;;;;0.20;0.20;;;5.10;99.90;;;;;;5016896;28;20053;-75
2023/05/27 01:32:45;;;;;;;0.13;0.13;;;5.10;99.90;;;;;;5016460;28;20033;-75
2023/05/27 01:35:41;;;;;;;0.22;0.22;;;5.10;99.90;;;;;;5016723;28;20018;-75
2023/05/27 01:38:10;;;;;;;0.20;0.20;;;5.10;99.90;;;;;;5016426;28;20021;-75
2023/05/27 01:40:38;;;;;;;0.20;0.20;;;5.00;99.90;;;;;;5031731;28;20025;-75
2023/05/27 01:43:05;;;;;;;0.10;0.10;;;5.00;99.90;;;;;;5031379;28;20044;-75
2023/05/27 01:45:31;;;;;;;0.13;0.13;;;5.00;99.90;;;;;;5016379;28;20108;-75
2023/05/27 01:47:57;;;;;;;0.20;0.20;;;4.90;99.90;;;;;;5031405;28;20033;-75
2023/05/27 01:50:22;;;;;;;0.20;0.20;;;4.80;99.90;;;;;;5016294;28;20026;-75
2023/05/27 01:52:48;;;;;;;0.10;0.10;;;4.90;99.90;;;;;;5016031;28;20515;-75
2023/05/27 01:55:13;;;;;;;0.20;0.20;;;4.80;99.90;;;;;;5016102;28;20113;-75
2023/05/27 01:57:39;;;;;;;0.20;0.20;;;4.80;99.90;;;;;;5016269;28;20041;-75
2023/05/27 02:00:06;;;;;;;0.20;0.20;;;4.90;99.90;;;;;;5016136;28;20017;-75
2023/05/27 02:02:32;;;;;;;0.20;0.20;;;4.90;99.90;;;;;;5016003;28;20025;-75
2023/05/27 02:04:57;;;;;;;0.20;0.20;;;5.00;99.90;;;;;;5015895;28;20104;-75
2023/05/27 02:07:23;;;;;;;0.20;0.20;;;5.10;99.90;;;;;;5015964;28;20041;-75
2023/05/27 02:09:49;;;;;;;0.20;0.20;;;5.00;99.90;;;;;;5015808;28;20026;-75
2023/05/27 02:12:15;;;;;;;0.20;0.20;;;5.00;99.90;;;;;;5031043;28;20392;-75
2023/05/27 02:14:40;;;;;;;0.20;0.20;;;4.90;99.90;;;;;;5015776;28;20025;-75
2023/05/27 02:17:07;;;;;;;0.30;0.30;;;4.80;99.90;;;;;;5015770;28;20022;-75
2023/05/27 02:19:33;;;;;;;0.20;0.20;;;4.70;99.90;;;;;;5015648;28;20101;-75
2023/05/27 02:21:58;;;;;;;0.20;0.20;;;4.70;99.90;;;;;;5015860;28;20068;-75
2023/05/27 02:24:24;;;;;;;0.20;0.20;;;4.80;99.90;;;;;;5015910;28;20076;-75
2023/05/27 02:26:49;;;;;;;0.20;0.20;;;4.90;99.90;;;;;;5015502;28;20114;-75
2023/05/27 02:29:15;;;;;;;0.20;0.20;;;4.70;99.90;;;;;;5014247;28;20068;-75
2023/05/27 02:31:41;;;;;;;0.20;0.20;;;4.70;99.90;;;;;;5041087;23;20033;-70
2023/05/27 02:34:06;;;;;;;0.20;0.20;;;4.60;99.90;;;;;;5032843;28;20079;-69
2023/05/27 02:36:33;;;;;;;0.10;0.10;;;4.60;99.90;;;;;;5033982;28;20133;-67
2023/05/27 02:38:59;;;;;;;0.20;0.20;;;4.70;99.90;;;;;;5034513;28;20029;-67
2023/05/27 02:41:24;;;;;;;0.20;0.20;;;4.70;99.90;;;;;;5035346;28;20029;-67
2023/05/27 02:43:50;;;;;;;0.20;0.20;;;4.70;99.90;;;;;;5035138;28;20028;-67
2023/05/27 02:46:15;;;;;;;0.20;0.20;;;4.60;99.90;;;;;;5035177;28;20119;-67
2023/05/27 02:48:41;;;;;;;0.30;0.30;;;4.70;99.90;;;;;;5034902;28;20033;-67
2023/05/27 02:51:06;;;;;;;0.20;0.20;;;4.60;99.90;;;;;;5025014;28;20446;-67
2023/05/27 02:53:32;;;;;;;0.15;0.15;;;4.40;99.90;;;;;;5020530;28;20048;-67
2023/05/27 02:55:57;;;;;;;0.20;0.20;;;4.40;99.90;;;;;;5034496;28;20029;-67
2023/05/27 02:58:23;;;;;;;0.20;0.20;;;4.30;99.90;;;;;;5034434;28;20068;-67
2023/05/27 03:00:48;;;;;;;0.20;0.20;;;4.20;99.90;;;;;;5034529;28;20025;-67
2023/05/27 03:03:14;;;;;;;0.15;0.15;;;4.20;99.90;;;;;;5034717;28;20053;-67
2023/05/27 03:05:40;;;;;;;0.20;0.20;;;4.20;99.90;;;;;;5034495;28;20589;-67
2023/05/27 03:08:06;;;;;;;0.20;0.20;;;4.20;99.90;;;;;;5034380;28;20048;-67
2023/05/27 03:10:32;;;;;;;0.20;0.20;;;4.20;99.90;;;;;;5034182;28;20018;-67
2023/05/27 03:12:58;;;;;;;0.20;0.20;;;4.30;99.90;;;;;;5034079;28;20029;-67
2023/05/27 03:15:24;;;;;;;0.20;0.20;;;4.30;99.90;;;;;;5034300;28;20032;-67
2023/05/27 03:17:49;;;;;;;0.20;0.20;;;4.30;99.90;;;;;;5033916;28;20018;-67
2023/05/27 03:20:16;;;;;;;0.10;0.10;;;4.20;99.90;;;;;;5034151;28;20025;-68
2023/05/27 03:22:42;;;;;;;0.20;0.20;;;4.10;99.90;;;;;;5034177;28;20037;-67
2023/05/27 03:25:08;;;;;;;0.10;0.10;;;4.10;99.90;;;;;;5033921;28;20061;-67
2023/05/27 03:27:34;;;;;;;0.20;0.20;;;4.00;99.90;;;;;;5033803;28;20103;-67
2023/05/27 03:30:00;;;;;;;0.20;0.20;;;4.00;99.90;;;;;;5034071;28;20018;-67
2023/05/27 03:32:25;;;;;;;0.20;0.20;;;4.00;99.90;;;;;;5033608;28;20029;-67
2023/05/27 03:34:51;;;;;;;0.20;0.20;;;4.10;99.90;;;;;;5033637;28;20053;-67
2023/05/27 03:37:16;;;;;;;0.15;0.15;;;4.10;99.90;;;;;;5033732;28;20021;-68
2023/05/27 03:39:42;;;;;;;0.30;0.30;;;4.20;99.90;;;;;;5033482;28;20056;-67
2023/05/27 03:42:07;;;;;;;0.30;0.30;;;4.20;99.90;;;;;;5033759;28;20047;-67
2023/05/27 03:44:33;;;;;;;0.20;0.20;;;4.20;99.90;;;;;;5033545;28;20029;-67
2023/05/27 03:47:02;;;;;;;0.10;0.10;;;4.10;99.90;;;;;;5033617;28;20395;-68
2023/05/27 03:49:27;;;;;;;0.20;0.20;;;4.10;99.90;;;;;;5033196;28;20026;-67
2023/05/27 03:51:53;;;;;;;0.20;0.20;;;4.20;99.90;;;;;;5032548;28;20022;-67
2023/05/27 03:54:18;;;;;;;0.20;0.20;;;4.20;99.90;;;;;;5033254;28;20017;-67
2023/05/27 03:56:44;;;;;;;0.20;0.20;;;4.20;99.90;;;;;;5033376;28;20391;-67
2023/05/27 03:59:11;;;;;;;0.20;0.20;;;4.30;99.90;;;;;;5033508;28;20163;-67
2023/05/27 04:01:37;;;;;;;0.20;0.20;;;4.30;99.90;;;;;;5033226;28;20041;-67
2023/05/27 04:04:03;;;;;;;0.20;0.20;;;4.40;99.90;;;;;;5033314;28;20116;-67
2023/05/27 04:06:29;;;;;;;0.20;0.20;;;4.50;99.90;;;;;;5031954;28;20394;-67
2023/05/27 04:08:55;;;;;;;0.30;0.30;;;4.60;99.90;;;;;;5014746;28;20446;-67
2023/05/27 04:11:20;;;;;;;0.30;0.30;;;4.60;99.90;;;;;;5013425;28;20022;-67
2023/05/27 04:13:48;;;;;;;0.22;0.22;;;4.70;99.90;;;;;;5028404;28;20032;-67
2023/05/27 04:16:15;;;;;;;0.17;0.17;;;4.80;99.90;;;;;;5031660;28;20032;-67
2023/05/27 04:18:41;;;;;;;0.28;0.28;;;4.90;99.90;;;;;;5027259;28;20553;-67
2023/05/27 04:21:08;;;;;;;0.20;0.20;;;4.90;99.90;;;;;;5012877;28;20025;-67
2023/05/27 04:23:33;;;;;;;0.20;0.20;;;4.90;99.90;;;;;;5013115;28;20022;-67
2023/05/27 04:25:59;;;;;;;0.30;0.30;;;4.90;99.90;;;;;;5016415;28;20453;-67
2023/05/27 04:28:25;;;;;;;0.20;0.20;;;5.00;99.90;;;;;;5032957;28;20033;-67
2023/05/27 04:30:51;;;;;;;0.20;0.20;;;5.10;99.90;;;;;;5032948;28;20025;-68
2023/05/27 04:33:17;;;;;;;0.20;0.20;;;5.30;99.90;;;;;;5032819;28;20108;-67
2023/05/27 04:35:43;;;;;;;0.20;0.20;;;5.30;99.90;;;;;;5032593;28;20521;-67
2023/05/27 04:38:10;;;;;;;0.28;0.28;;;5.40;99.90;;;;;;5032872;28;20139;-68
2023/05/27 04:40:36;;;;;;;0.20;0.20;;;5.50;99.90;;;;;;5032581;28;20407;-68
2023/05/27 04:43:01;;;;;;;0.20;0.20;;;5.60;99.90;;;;;;5032604;28;20025;-67
2023/05/27 04:45:29;;;;;;;0.10;0.10;;;5.70;99.90;;;;;;5032877;28;20029;-67
2023/05/27 04:47:55;;;;;;;0.20;0.20;;;5.80;99.90;;;;;;5032891;28;20376;-67
2023/05/27 04:50:21;;;;;;;0.20;0.20;;;5.90;99.90;;;;;;5032708;28;20024;-67
2023/05/27 04:52:47;;;;;;;0.20;0.20;;;6.00;99.90;;;;;;5020207;28;20022;-68
2023/05/27 04:55:12;;;;;;;0.20;0.20;;;6.10;99.90;;;;;;5027743;28;20018;-68
2023/05/27 04:57:40;;;;;;;0.20;0.20;;;6.30;99.90;;;;;;5032530;28;20101;-67
2023/05/27 05:02:37;;;;;;;0.20;0.20;;;6.50;99.90;;;;;;5032878;28;20057;-67
2023/05/27 05:05:11;;;;;;;0.20;0.20;;;6.70;99.90;;;;;;5036585;28;20491;-68
2023/05/27 05:07:41;;;;;;;0.20;0.20;;;6.90;99.90;;;;;;5023130;28;20038;-67
2023/05/27 05:10:07;;;;;;;0.30;0.30;;;7.00;99.90;;;;;;5016704;28;20030;-67
2023/05/27 05:12:33;;;;;;;0.10;0.10;;;7.10;99.90;;;;;;5016799;28;20037;-67
2023/05/27 05:14:59;;;;;;;0.20;0.20;;;7.20;99.90;;;;;;5016777;28;20034;-68
2023/05/27 05:17:25;;;;;;;0.20;0.20;;;7.30;99.90;;;;;;5018847;28;20391;-67
2023/05/27 05:19:53;;;;;;;0.20;0.20;;;7.50;99.90;;;;;;5016790;28;20030;-68
2023/05/27 05:22:22;;;;;;;0.20;0.20;;;7.60;99.90;;;;;;5031604;28;20108;-68
2023/05/27 05:24:48;;;;;;;0.15;0.15;;;7.80;99.90;;;;;;5036251;28;20026;-67
2023/05/27 05:27:13;;;;;;;0.20;0.20;;;7.90;99.90;;;;;;5036084;28;20035;-68
2023/05/27 05:29:39;;;;;;;0.22;0.22;;;8.00;99.90;;;;;;5018163;28;20383;-67
2023/05/27 05:32:05;;;;;;;0.10;0.10;;;8.10;99.90;;;;;;5016064;28;20037;-67
2023/05/27 05:34:31;;;;;;;0.20;0.20;;;8.20;99.90;;;;;;5029419;28;20024;-67
2023/05/27 05:36:56;;;;;;;0.20;0.20;;;8.20;99.90;;;;;;5036348;28;20104;-67
2023/05/27 05:39:22;;;;;;;0.20;0.20;;;8.40;99.90;;;;;;5035891;28;20037;-68
2023/05/27 05:41:48;;;;;;;0.10;0.10;;;8.50;99.90;;;;;;5036092;28;20083;-68
2023/05/27 05:44:14;;;;;;;0.13;0.13;;;8.50;99.90;;;;;;5035987;28;20075;-68
2023/05/27 05:46:40;;;;;;;0.20;0.20;;;8.70;99.90;;;;;;5035862;28;20037;-67
2023/05/27 05:49:06;;;;;;;0.10;0.10;;;8.80;99.90;;;;;;5035394;28;20504;-67
2023/05/27 05:51:31;;;;;;;0.10;0.10;;;8.80;99.90;;;;;;5036019;28;20025;-68
2023/05/27 05:53:58;;;;;;;0.20;0.20;;;8.90;99.90;;;;;;5035875;28;20029;-68
2023/05/27 05:56:25;;;;;;;0.20;0.20;;;9.00;99.90;;;;;;5035906;28;20104;-67
2023/05/27 05:58:51;;;;;;;0.20;0.20;;;9.30;99.90;;;;;;5036146;28;20022;-67
2023/05/27 06:01:16;;;;;;;0.10;0.10;;;9.30;99.90;;;;;;5035808;28;20075;-67
2023/05/27 06:03:42;;;;;;;0.10;0.10;;;9.30;99.90;;;;;;5035755;28;20039;-68
2023/05/27 06:06:08;;;;;;;0.13;0.13;;;9.50;99.90;;;;;;5035734;28;20116;-68
2023/05/27 06:08:33;;;;;;;0.10;0.10;;;9.60;99.90;;;;;;5035640;28;20029;-68
2023/05/27 06:10:59;;;;;;;0.20;0.20;;;9.70;99.90;;;;;;5035686;28;20422;-68
2023/05/27 06:13:24;;;;;;;0.20;0.20;;;9.80;99.90;;;;;;5034722;28;20021;-68
2023/05/27 06:15:50;;;;;;;0.20;0.20;;;9.90;99.90;;;;;;5035494;28;20022;-67
2023/05/27 06:18:16;;;;;;;0.10;0.10;;;10.00;99.90;;;;;;5035822;28;20025;-68
2023/05/27 06:20:41;;;;;;;0.20;0.20;;;10.20;99.90;;;;;;5035675;28;20447;-67
2023/05/27 06:23:07;;;;;;;0.20;0.20;;;10.30;99.90;;;;;;5035332;28;20083;-68
2023/05/27 06:25:32;;;;;;;0.20;0.20;;;10.30;99.90;;;;;;5035314;28;20026;-68
2023/05/27 06:27:58;;;;;;;0.10;0.10;;;10.60;99.90;;;;;;5035292;28;20034;-68
2023/05/27 06:30:24;;;;;;;0.20;0.20;;;10.70;99.90;;;;;;5035225;28;20029;-68
2023/05/27 06:32:50;;;;;;;0.13;0.13;;;10.90;99.90;;;;;;5035196;28;20092;-67
2023/05/27 06:35:15;;;;;;;0.15;0.15;;;11.10;99.90;;;;;;5035453;28;20056;-68
2023/05/27 06:37:41;;;;;;;0.10;0.10;;;11.30;99.90;;;;;;5035396;28;20513;-68
2023/05/27 06:40:07;;;;;;;0.20;0.20;;;11.40;99.90;;;;;;5035345;28;20025;-68
2023/05/27 06:42:32;;;;;;;0.20;0.20;;;11.50;99.90;;;;;;5034930;28;20108;-68
2023/05/27 06:44:58;;;;;;;0.20;0.20;;;11.60;99.90;;;;;;5034991;28;20071;-68
2023/05/27 06:47:23;;;;;;;0.17;0.17;;;11.80;99.90;;;;;;5034964;28;20078;-68
2023/05/27 06:49:49;;;;;;;0.10;0.10;;;12.00;99.90;;;;;;5035063;28;20013;-68
2023/05/27 06:52:15;;;;;;;0.20;0.20;;;12.10;99.90;;;;;;5034943;28;20017;-68
2023/05/27 06:54:41;;;;;;;0.20;0.20;;;12.30;99.90;;;;;;5033576;28;20033;-68
2023/05/27 06:57:06;;;;;;;0.20;0.20;;;12.50;99.90;;;;;;5034842;28;20037;-68
2023/05/27 06:59:32;;;;;;;0.20;0.20;;;12.60;99.90;;;;;;5034758;28;20041;-68
2023/05/27 07:01:58;;;;;;;0.20;0.20;;;12.90;99.90;;;;;;5033316;28;20065;-68
2023/05/27 07:04:24;;;;;;;0.10;0.10;;;12.90;99.90;;;;;;5035460;28;20033;-68
2023/05/27 07:06:50;;;;;;;0.20;0.20;;;13.00;99.90;;;;;;5034744;28;20040;-68
2023/05/27 07:09:16;;;;;;;0.15;0.15;;;13.10;99.90;;;;;;5034479;28;20026;-68
2023/05/27 07:11:41;;;;;;;0.20;0.20;;;13.30;99.90;;;;;;5034424;28;20025;-68
2023/05/27 07:14:09;;;;;;;0.10;0.10;;;13.40;99.90;;;;;;5034490;28;20131;-68
2023/05/27 07:16:34;;;;;;;0.20;0.20;;;13.50;99.90;;;;;;5019609;28;20068;-67
2023/05/27 07:19:00;;;;;;;0.10;0.10;;;13.60;99.90;;;;;;5027644;28;20009;-68
2023/05/27 07:21:26;;;;;;;0.20;0.20;;;13.60;99.90;;;;;;5034069;28;20029;-68
2023/05/27 07:23:51;;;;;;;0.15;0.15;;;13.60;99.90;;;;;;5033617;28;20531;-66
2023/05/27 07:26:17;;;;;;;0.10;0.10;;;13.70;99.90;;;;;;5033979;28;20578;-66
2023/05/27 07:28:43;;;;;;;0.20;0.20;;;13.90;99.90;;;;;;5033700;28;20061;-66
2023/05/27 07:31:08;;;;;;;0.20;0.20;;;14.00;99.90;;;;;;5034187;28;20033;-66
2023/05/27 07:33:34;;;;;;;0.20;0.20;;;14.10;99.90;;;;;;5033798;28;20033;-66
2023/05/27 07:35:59;;;;;;;0.20;0.20;;;14.30;99.90;;;;;;5034044;28;20449;-66
2023/05/27 07:38:25;;;;;;;0.20;0.20;;;14.50;99.90;;;;;;5033936;28;20040;-66
2023/05/27 07:40:51;;;;;;;0.20;0.20;;;14.70;99.90;;;;;;5034090;28;20025;-66
2023/05/27 07:43:16;;;;;;;0.20;0.20;;;14.80;99.90;;;;;;5033659;28;20075;-67
2023/05/27 07:45:42;;;;;;;0.17;0.17;;;14.90;99.90;;;;;;5033771;28;20029;-66
2023/05/27 07:48:07;;;;;;;0.20;0.20;;;15.00;99.90;;;;;;5033352;28;20036;-66
2023/05/27 07:50:33;;;;;;;0.20;0.20;;;15.10;99.90;;;;;;5034029;28;20109;-66
2023/05/27 07:52:58;;;;;;;0.10;0.10;;;15.10;99.90;;;;;;5033329;28;20029;-66
2023/05/27 07:55:24;;;;;;;0.10;0.10;;;15.10;99.90;;;;;;5033368;28;20029;-67
2023/05/27 07:57:50;;;;;;;0.20;0.20;;;15.00;99.90;;;;;;5033473;28;20040;-67
2023/05/27 08:00:15;;;;;;;0.10;0.10;;;15.20;99.90;;;;;;5033512;28;20029;-67
2023/05/27 08:02:43;;;;;;;0.10;0.10;;;15.50;99.90;;;;;;5033206;28;20029;-66
2023/05/27 08:05:09;;;;;;;0.15;0.15;;;15.70;99.90;;;;;;5033273;28;20064;-66
2023/05/27 08:07:34;;;;;;;0.10;0.10;;;16.00;99.90;;;;;;5033058;28;20077;-66
2023/05/27 08:10:00;;;;;;;0.13;0.13;;;16.00;99.90;;;;;;5033036;28;20029;-66
2023/05/27 08:12:25;;;;;;;0.20;0.20;;;15.80;99.90;;;;;;5030936;28;20767;-66
2023/05/27 08:14:51;;;;;;;0.10;0.10;;;15.80;99.90;;;;;;5018469;28;20109;-66
2023/05/27 08:17:17;;;;;;;0.10;0.10;;;15.90;99.90;;;;;;5029742;28;20033;-66
2023/05/27 08:19:42;;;;;;;0.10;0.10;;;15.70;99.90;;;;;;5030745;28;20034;-66
2023/05/27 08:22:08;;;;;;;0.10;0.10;;;15.70;99.90;;;;;;5013844;28;20084;-66
2023/05/27 08:24:36;;;;;;;0.10;0.10;;;15.90;99.90;;;;;;5026926;28;20499;-66
2023/05/27 08:27:02;;;;;;;0.10;0.10;;;16.10;99.90;;;;;;5029215;28;20026;-66
2023/05/27 08:29:30;;;;;;;0.10;0.10;;;16.50;99.90;;;;;;5032703;28;20040;-68
2023/05/27 08:31:57;;;;;;;0.20;0.20;;;16.80;99.90;;;;;;5032680;28;20060;-67
2023/05/27 08:34:23;;;;;;;0.10;0.10;;;17.00;99.90;;;;;;5015804;28;20113;-67
2023/05/27 08:36:48;;;;;;;0.10;0.10;;;17.10;99.90;;;;;;5012354;28;20076;-66
2023/05/27 08:39:14;;;;;;;0.13;0.13;;;17.00;99.90;;;;;;5025969;28;20068;-66
2023/05/27 08:41:40;;;;;;;0.10;0.10;;;17.00;99.90;;;;;;5032801;28;20075;-66
2023/05/27 08:44:06;;;;;;;0.10;0.10;;;17.10;99.90;;;;;;5028694;28;20104;-66
2023/05/27 08:46:33;;;;;;;0.10;0.10;;;17.00;99.90;;;;;;5024453;28;20475;-66
2023/05/27 08:48:59;;;;;;;0.10;0.10;;;17.30;99.90;;;;;;5032559;28;20080;-66
2023/05/27 08:51:27;;;;;;;0.10;0.10;;;17.40;99.90;;;;;;5033051;28;20025;-66
2023/05/27 08:53:52;;;;;;;0.10;0.10;;;17.50;99.90;;;;;;5032685;28;20017;-66
2023/05/27 08:56:23;;;;;;;0.10;0.10;;;17.50;99.90;;;;;;5032530;28;20143;-66
2023/05/27 08:58:50;;;;;;;0.20;0.20;;;17.50;99.90;;;;;;5032884;28;20037;-66
2023/05/27 09:01:21;;;;;;;0.10;0.10;;;17.40;99.90;;;;;;5032832;28;20025;-66
2023/05/27 09:03:47;;;;;;;0.20;0.20;;;17.50;99.90;;;;;;5032433;28;20093;-66
2023/05/27 09:06:13;;;;;;;0.10;0.10;;;17.60;99.90;;;;;;5032875;28;20025;-66
2023/05/27 09:08:39;;;;;;;0.10;0.10;;;17.80;99.90;;;;;;5032276;28;20544;-66
2023/05/27 09:11:07;;;;;;;0.10;0.10;;;17.80;99.90;;;;;;5032577;28;20025;-67
2023/05/27 09:13:33;;;;;;;0.10;0.10;;;18.10;99.90;;;;;;5032662;28;20053;-66
2023/05/27 09:16:03;;;;;;;0.10;0.10;;;18.50;99.90;;;;;;5032602;28;20029;-66
2023/05/27 09:18:33;;;;;;;0.10;0.10;;;18.90;99.90;;;;;;5032705;28;20033;-66
2023/05/27 09:20:59;;;;;;;0.10;0.10;;;19.30;99.90;;;;;;5032384;28;20108;-66
2023/05/27 09:23:25;;;;;;;0.10;0.10;;;19.40;99.90;;;;;;5032419;28;20057;-66
2023/05/27 09:25:51;;;;;;;0.10;0.10;;;19.30;99.90;;;;;;5031020;28;20040;-66
2023/05/27 09:28:24;;;;;;;0.00;0.00;;;19.10;99.90;;;;;;5032002;28;20068;-66
2023/05/27 09:30:51;;;;;;;;;;;19.00;99.90;;;;;;5032607;28;20095;-67
2023/05/27 09:33:22;;;;;;;0.10;0.10;;;18.80;99.90;;;;;;5015957;28;19914;-66
2023/05/27 09:35:49;;;;;;;0.13;0.13;;;18.40;99.90;;;;;;5012468;28;20036;-66
2023/05/27 09:38:14;;;;;;;0.10;0.10;;;18.30;99.90;;;;;;5012576;28;20538;-66
2023/05/27 09:40:44;;;;;;;0.10;0.10;;;18.30;99.90;;;;;;5012389;28;20029;-66
2023/05/27 09:43:13;;;;;;;0.10;0.10;;;18.50;99.90;;;;;;5012518;28;20066;-66
2023/05/27 09:45:40;;;;;;;0.10;0.10;;;18.40;99.90;;;;;;5012513;28;20562;-66
2023/05/27 09:48:07;;;;;;;0.10;0.10;;;18.50;99.90;;;;;;5016201;28;20022;-66
2023/05/27 09:50:34;;;;;;;0.10;0.10;;;18.60;99.90;;;;;;5035912;28;20025;-66
2023/05/27 09:53:01;;;;;;;0.10;0.10;;;18.50;99.90;;;;;;5035792;28;20030;-67
2023/05/27 09:55:28;;;;;;;0.10;0.10;;;18.50;99.90;;;;;;5035776;28;20382;-69
2023/05/27 09:57:54;;;;;;;0.10;0.10;;;18.90;99.90;;;;;;5035598;28;20030;-69
2023/05/27 10:00:21;;;;;;;0.10;0.10;;;18.80;99.90;;;;;;5035196;28;20113;-69
2023/05/27 10:02:47;;;;;;;0.10;0.10;;;18.80;99.90;;;;;;5035609;28;20026;-69
2023/05/27 10:05:17;;;;;;;0.10;0.10;;;18.90;99.90;;;;;;5035646;28;20049;-69
2023/05/27 10:07:44;;;;;;;0.10;0.10;;;18.80;99.90;;;;;;5035396;28;20123;-69
2023/05/27 10:10:11;;;;;;;0.10;0.10;;;18.70;99.90;;;;;;5035379;28;20037;-70
2023/05/27 10:12:41;;;;;;;0.10;0.10;;;19.00;99.90;;;;;;5035611;28;20028;-70
2023/05/27 10:15:08;;;;;;;0.10;0.10;;;19.40;99.90;;;;;;5035259;28;20030;-70
2023/05/27 10:17:52;;;;;;;0.10;0.10;;;19.40;99.90;;;;;;5035143;28;20035;-70
2023/05/27 10:20:48;;;;;;;0.10;0.10;;;19.60;99.90;;;;;;5032911;28;20104;-70
2023/05/27 10:23:17;;;;;;;0.10;0.10;;;19.40;99.90;;;;;;5011099;28;20030;-70
2023/05/27 10:25:51;;;;;;;0.10;0.10;;;19.30;99.90;;;;;;5015812;28;20026;-70
2023/05/27 10:28:23;;;;;;;;;;;19.50;99.90;;;;;;5034053;28;20029;-70
2023/05/27 10:30:49;;;;;;;0.10;0.10;;;19.60;99.90;;;;;;5034639;28;19909;-70
2023/05/27 10:33:14;;;;;;;0.10;0.10;;;19.70;99.90;;;;;;5017121;28;20380;-70
2023/05/27 10:35:49;;;;;;;0.10;0.10;;;19.80;99.90;;;;;;5014952;28;20026;-70
2023/05/27 10:38:18;;;;;;;0.10;0.10;;;19.90;99.90;;;;;;5015278;28;20373;-70
2023/05/27 10:40:46;;;;;;;0.10;0.10;;;19.80;99.90;;;;;;5015018;28;20101;-70
2023/05/27 10:43:16;;;;;;;0.10;0.10;;;19.80;99.90;;;;;;5022904;28;20022;-70
2023/05/27 10:45:42;;;;;;;0.10;0.10;;;19.50;99.90;;;;;;5034748;28;20502;-70
2023/05/27 10:48:19;;;;;;;0.10;0.10;;;20.00;99.90;;;;;;5034349;28;20079;-70
2023/05/27 10:50:52;;;;;;;0.10;0.10;;;20.10;99.90;;;;;;5033504;28;20025;-70
2023/05/27 10:53:23;;;;;;;0.10;0.10;;;20.00;99.90;;;;;;5034443;28;20087;-70
2023/05/27 10:55:52;;;;;;;0.10;0.10;;;20.00;99.90;;;;;;5034604;28;20083;-70
2023/05/27 10:58:19;;;;;;;0.10;0.10;;;20.10;99.90;;;;;;5034319;28;20039;-70
2023/05/27 11:00:48;;;;;;;0.10;0.10;;;20.20;99.90;;;;;;5034216;28;20029;-70
2023/05/27 11:03:27;;;;;;;0.10;0.10;;;20.60;99.90;;;;;;5033965;28;20017;-70
2023/05/27 11:06:00;;;;;;;0.17;0.17;;;20.30;99.90;;;;;;5034465;28;20033;-70
2023/05/27 11:08:25;;;;;;;0.10;0.10;;;20.10;99.90;;;;;;5034178;28;20021;-70
2023/05/27 11:10:57;;;;;;;0.00;0.00;;;20.20;99.90;;;;;;5034543;28;20257;-70
2023/05/27 11:13:28;;;;;;;0.10;0.10;;;20.50;99.90;;;;;;5034246;28;20100;-71
2023/05/27 11:15:54;;;;;;;0.10;0.10;;;20.40;99.90;;;;;;5034182;28;20021;-71
2023/05/27 11:18:20;;;;;;;0.10;0.10;;;20.50;99.90;;;;;;5034313;28;20032;-70
2023/05/27 11:20:47;;;;;;;0.10;0.10;;;20.60;99.90;;;;;;5033704;28;20079;-70
2023/05/27 11:23:12;;;;;;;0.10;0.10;;;20.50;99.90;;;;;;5032857;28;20056;-70
2023/05/27 11:25:43;;;;;;;0.10;0.10;;;20.80;99.90;;;;;;5034019;28;20063;-70
2023/05/27 11:28:17;;;;;;;0.00;0.00;;;21.00;99.90;;;;;;5033791;28;20404;-70
2023/05/27 11:30:43;;;;;;;0.10;0.10;;;21.30;99.90;;;;;;5021627;28;20453;-70
2023/05/27 11:33:09;;;;;;;0.10;0.10;;;21.10;99.90;;;;;;5027320;28;20069;-71
2023/05/27 11:35:35;;;;;;;0.10;0.10;;;21.20;99.90;;;;;;5026422;28;20021;-71
2023/05/27 11:38:02;;;;;;;0.10;0.10;;;21.50;99.90;;;;;;5018177;28;20452;-71
2023/05/27 11:40:35;;;;;;;0.10;0.10;;;21.80;99.90;;;;;;5014055;28;20619;-71
2023/05/27 11:43:01;;;;;;;0.10;0.10;;;21.80;99.90;;;;;;5014125;28;20037;-71
2023/05/27 11:45:27;;;;;;;0.10;0.10;;;21.90;99.90;;;;;;5013852;28;20034;-71
2023/05/27 11:47:54;;;;;;;0.00;0.00;;;22.10;99.90;;;;;;5013537;28;20179;-71
2023/05/27 11:50:24;;;;;;;0.10;0.10;;;22.80;99.90;;;;;;5013998;28;20108;-70
2023/05/27 11:52:54;;;;;;;0.10;0.10;;;22.90;99.90;;;;;;5013973;28;20483;-69
2023/05/27 11:55:20;;;;;;;0.05;0.05;;;22.30;99.90;;;;;;5014150;28;20025;-69
2023/05/27 11:57:45;;;;;;;0.00;0.00;;;22.50;99.90;;;;;;5014771;28;20418;-71
2023/05/27 12:00:12;;;;;;;0.10;0.10;;;22.60;99.90;;;;;;5013853;28;20034;-70
2023/05/27 12:02:37;;;;;;;0.00;0.00;;;22.80;99.90;;;;;;5013849;28;20022;-71
2023/05/27 12:05:06;;;;;;;0.10;0.10;;;22.70;99.90;;;;;;5013852;28;20034;-71
2023/05/27 12:07:31;;;;;;;0.05;0.05;;;22.90;99.90;;;;;;5012411;28;20030;-71
2023/05/27 12:09:57;;;;;;;0.00;0.00;;;23.00;99.90;;;;;;5013753;28;20109;-70
2023/05/27 12:12:22;;;;;;;0.00;0.00;;;22.80;99.90;;;;;;5012962;28;20042;-71
2023/05/27 12:14:48;;;;;;;0.00;0.00;;;22.80;99.90;;;;;;5013680;28;20403;-71
2023/05/27 12:17:13;;;;;;;0.08;0.08;;;23.30;99.90;;;;;;5012598;28;20113;-71
2023/05/27 12:19:39;;;;;;;0.00;0.00;;;23.90;99.90;;;;;;5013643;28;20054;-71
2023/05/27 12:22:04;;;;;;;0.00;0.00;;;24.70;99.90;;;;;;5013716;28;20391;-71
2023/05/27 12:24:30;;;;;;;0.00;0.00;;;25.40;99.90;;;;;;5013806;28;20484;-71
2023/05/27 12:26:56;;;;;;;0.00;0.00;;;26.00;99.90;;;;;;5013634;28;20029;-71
2023/05/27 12:29:24;;;;;;;0.00;0.00;;;26.10;99.90;;;;;;5013528;28;20429;-72
2023/05/27 12:31:50;;;;;;;0.00;0.00;;;26.20;99.90;;;;;;5012356;28;20392;-71
2023/05/27 12:34:15;;;;;;;0.00;0.00;;;26.00;99.90;;;;;;5013399;28;20026;-71
2023/05/27 12:36:41;;;;;;;0.00;0.00;;;25.90;99.90;;;;;;5013368;28;20388;-71
2023/05/27 12:39:06;;;;;;;0.00;0.00;;;25.40;99.90;;;;;;5013341;28;20058;-70
2023/05/27 12:41:32;;;;;;;0.00;0.00;;;24.90;99.90;;;;;;5013315;28;20022;-70
2023/05/27 12:43:59;;;;;;;0.00;0.00;;;24.20;99.90;;;;;;5013190;28;20105;-70
2023/05/27 12:46:24;;;;;;;0.00;0.00;;;23.70;99.90;;;;;;5013332;28;20018;-70
2023/05/27 12:48:50;;;;;;;0.03;0.03;;;23.40;99.90;;;;;;5013168;28;20037;-70
2023/05/27 12:51:15;;;;;;;0.00;0.00;;;23.60;99.90;;;;;;5013252;28;20435;-71
2023/05/27 12:53:41;;;;;;;0.00;0.00;;;24.30;99.90;;;;;;5013231;28;20029;-71